createdAt,value
2019-06-07T00:00:35.011Z,13.59
2019-06-07T00:01:21.175Z,13.52
2019-06-07T00:02:19.072Z,13.44
2019-06-07T00:03:27.673Z,13.36
2019-06-07T00:04:21.486Z,13.32
2019-06-07T00:05:19.996Z,13.30
2019-06-07T00:06:24.316Z,13.29
2019-06-07T00:07:21.828Z,13.25
2019-06-07T00:08:27.137Z,13.27
2019-06-07T00:09:22.702Z,13.27
2019-06-07T00:10:36.040Z,13.29
2019-06-07T00:11:20.776Z,13.29
2019-06-07T00:12:21.532Z,13.30
2019-06-07T00:13:20.378Z,13.32
2019-06-07T00:14:21.156Z,13.33
2019-06-07T00:15:26.548Z,13.32
2019-06-07T00:16:23.182Z,13.30
2019-06-07T00:17:20.281Z,13.29
2019-06-07T00:18:25.360Z,13.32
2019-06-07T00:19:19.832Z,13.36
2019-06-07T00:20:23.279Z,13.38
2019-06-07T00:21:20.490Z,13.41
2019-06-07T00:22:31.636Z,13.40
2019-06-07T00:23:22.200Z,13.41
2019-06-07T00:24:21.523Z,13.40
2019-06-07T00:25:24.139Z,13.37
2019-06-07T00:26:21.239Z,13.36
2019-06-07T00:27:22.261Z,13.30
2019-06-07T00:28:20.046Z,13.30
2019-06-07T00:29:21.571Z,13.27
2019-06-07T00:30:37.641Z,13.27
2019-06-07T00:31:24.043Z,13.25
2019-06-07T00:32:21.983Z,13.24
2019-06-07T00:33:23.874Z,13.25
2019-06-07T00:34:22.544Z,13.24
2019-06-07T00:35:21.028Z,13.25
2019-06-07T00:36:20.689Z,13.27
2019-06-07T00:37:21.933Z,13.27
2019-06-07T00:38:21.422Z,13.27
2019-06-07T00:39:22.924Z,13.24
2019-06-07T00:40:30.888Z,13.22
2019-06-07T00:41:22.175Z,13.22
2019-06-07T00:42:20.932Z,13.20
2019-06-07T00:43:25.252Z,13.18
2019-06-07T00:44:21.530Z,13.17
2019-06-07T00:45:21.870Z,13.15
2019-06-07T00:46:21.647Z,13.15
2019-06-07T00:47:23.638Z,13.18
2019-06-07T00:48:27.432Z,13.18
2019-06-07T00:49:36.192Z,13.14
2019-06-07T00:50:23.536Z,13.12
2019-06-07T00:51:19.579Z,13.11
2019-06-07T00:53:07.982Z,13.17
2019-06-07T00:53:28.869Z,13.20
2019-06-07T00:54:21.770Z,13.22
2019-06-07T00:55:22.224Z,13.22
2019-06-07T00:56:21.769Z,13.24
2019-06-07T00:57:19.857Z,13.27
2019-06-07T00:58:21.931Z,13.30
2019-06-07T00:59:24.268Z,13.29
2019-06-07T01:00:22.285Z,13.27
2019-06-07T01:01:22.154Z,13.21
2019-06-07T01:02:21.027Z,13.20
2019-06-07T01:03:23.400Z,13.17
2019-06-07T01:04:22.837Z,13.17
2019-06-07T01:05:22.539Z,13.14
2019-06-07T01:06:22.644Z,13.07
2019-06-07T01:07:19.754Z,13.03
2019-06-07T01:08:21.566Z,12.97
2019-06-07T01:09:22.295Z,12.97
2019-06-07T01:10:42.831Z,12.93
2019-06-07T01:11:23.167Z,12.92
2019-06-07T01:12:21.308Z,12.88
2019-06-07T01:13:22.316Z,12.81
2019-06-07T01:14:22.643Z,12.78
2019-06-07T01:15:23.459Z,12.78
2019-06-07T01:16:22.219Z,12.81
2019-06-07T01:17:28.684Z,12.84
2019-06-07T01:18:37.247Z,12.89
2019-06-07T01:19:22.264Z,12.87
2019-06-07T01:20:21.274Z,12.85
2019-06-07T01:21:20.671Z,12.88
2019-06-07T01:22:20.635Z,12.89
2019-06-07T01:23:55.342Z,12.93
2019-06-07T01:24:20.079Z,12.93
2019-06-07T01:25:18.991Z,12.87
2019-06-07T01:26:20.566Z,12.79
2019-06-07T01:27:19.029Z,12.71
2019-06-07T01:28:21.365Z,12.63
2019-06-07T01:29:20.019Z,12.60
2019-06-07T01:30:18.938Z,12.60
2019-06-07T01:31:21.081Z,12.62
2019-06-07T01:32:20.927Z,12.63
2019-06-07T01:33:18.382Z,12.64
2019-06-07T01:34:18.530Z,12.67
2019-06-07T01:35:20.218Z,12.74
2019-06-07T01:36:19.561Z,12.71
2019-06-07T01:37:20.102Z,12.74
2019-06-07T01:38:22.894Z,12.75
2019-06-07T01:39:18.990Z,12.77
2019-06-07T01:40:20.770Z,12.75
2019-06-07T01:41:23.047Z,12.75
2019-06-07T01:42:20.419Z,12.77
2019-06-07T01:43:19.513Z,12.70
2019-06-07T01:44:22.325Z,12.67
2019-06-07T01:45:19.548Z,12.69
2019-06-07T01:46:18.181Z,12.64
2019-06-07T01:47:20.025Z,12.66
2019-06-07T01:48:21.109Z,12.67
2019-06-07T01:49:19.710Z,12.69
2019-06-07T01:50:21.657Z,12.71
2019-06-07T01:51:19.991Z,12.77
2019-06-07T01:52:19.600Z,12.77
2019-06-07T01:53:22.409Z,12.78
2019-06-07T01:55:23.068Z,12.78
2019-06-07T01:56:20.504Z,12.79
2019-06-07T01:57:34.013Z,12.84
2019-06-07T01:58:19.818Z,12.84
2019-06-07T01:59:17.915Z,12.84
2019-06-07T02:01:40.169Z,12.85
2019-06-07T02:02:38.897Z,12.84
2019-06-07T02:03:38.908Z,12.85
2019-06-07T02:04:38.898Z,12.82
2019-06-07T02:05:38.887Z,12.77
2019-06-07T02:06:38.879Z,12.70
2019-06-07T02:07:39.216Z,12.67
2019-06-07T02:08:38.839Z,12.64
2019-06-07T02:09:38.826Z,12.60
2019-06-07T02:10:38.816Z,12.54
2019-06-07T02:11:38.812Z,12.48
2019-06-07T02:12:43.281Z,12.39
2019-06-07T02:13:39.826Z,12.26
2019-06-07T02:14:38.848Z,12.19
2019-06-07T02:15:38.769Z,12.11
2019-06-07T02:16:38.755Z,12.04
2019-06-07T02:17:38.745Z,12.01
2019-06-07T02:18:57.160Z,12.02
2019-06-07T02:19:40.465Z,11.99
2019-06-07T02:20:38.756Z,12.01
2019-06-07T02:21:38.705Z,12.06
2019-06-07T02:22:38.697Z,12.08
2019-06-07T02:23:38.685Z,12.11
2019-06-07T02:24:38.678Z,12.19
2019-06-07T02:25:48.443Z,12.20
2019-06-07T02:26:39.665Z,12.23
2019-06-07T02:27:38.645Z,12.20
2019-06-07T02:28:45.476Z,12.24
2019-06-07T02:29:39.615Z,12.23
2019-06-07T02:30:49.339Z,12.23
2019-06-07T02:31:40.082Z,12.23
2019-06-07T02:32:38.600Z,12.23
2019-06-07T02:33:40.104Z,12.23
2019-06-07T02:34:39.702Z,12.26
2019-06-07T02:35:40.428Z,12.30
2019-06-07T02:36:41.546Z,12.27
2019-06-07T02:37:39.625Z,12.24
2019-06-07T02:38:38.525Z,12.20
2019-06-07T02:39:41.082Z,12.15
2019-06-07T02:40:38.515Z,12.08
2019-06-07T02:41:39.889Z,12.05
2019-06-07T02:42:42.829Z,12.05
2019-06-07T02:43:38.538Z,12.05
2019-06-07T02:44:40.090Z,12.05
2019-06-07T02:45:43.251Z,12.08
2019-06-07T02:46:46.807Z,12.02
2019-06-07T02:47:39.441Z,12.05
2019-06-07T02:48:40.073Z,12.06
2019-06-07T02:49:41.649Z,12.04
2019-06-07T02:50:38.990Z,12.05
2019-06-07T02:51:41.596Z,12.01
2019-06-07T02:52:40.455Z,12.01
2019-06-07T02:53:40.416Z,12.01
2019-06-07T02:54:40.494Z,12.01
2019-06-07T02:56:33.406Z,12.01
2019-06-07T02:56:56.726Z,12.01
2019-06-07T02:57:41.756Z,12.05
2019-06-07T02:58:41.943Z,12.04
2019-06-07T03:00:02.941Z,11.99
2019-06-07T03:00:54.553Z,11.93
2019-06-07T03:01:42.270Z,11.86
2019-06-07T03:02:41.468Z,11.83
2019-06-07T03:03:39.922Z,11.83
2019-06-07T03:04:42.165Z,11.85
2019-06-07T03:05:40.917Z,11.82
2019-06-07T03:06:43.259Z,11.75
2019-06-07T03:07:44.547Z,11.71
2019-06-07T03:08:39.222Z,11.70
2019-06-07T03:09:39.979Z,11.68
2019-06-07T03:10:41.741Z,11.65
2019-06-07T03:11:38.988Z,11.61
2019-06-07T03:12:39.263Z,11.56
2019-06-07T03:13:40.804Z,11.53
2019-06-07T03:14:39.415Z,11.53
2019-06-07T03:15:45.745Z,11.57
2019-06-07T03:16:39.226Z,11.59
2019-06-07T03:17:40.527Z,11.61
2019-06-07T03:18:41.483Z,11.65
2019-06-07T03:19:39.488Z,11.64
2019-06-07T03:20:39.855Z,11.59
2019-06-07T03:21:41.448Z,11.59
2019-06-07T03:22:41.142Z,11.59
2019-06-07T03:23:39.151Z,11.62
2019-06-07T03:24:41.711Z,11.62
2019-06-07T03:25:39.217Z,11.64
2019-06-07T03:27:30.433Z,11.62
2019-06-07T03:27:48.589Z,11.67
2019-06-07T03:28:39.559Z,11.71
2019-06-07T03:29:41.210Z,11.74
2019-06-07T03:31:02.687Z,11.78
2019-06-07T03:31:46.350Z,11.85
2019-06-07T03:32:46.745Z,11.90
2019-06-07T03:33:42.876Z,11.96
2019-06-07T03:34:43.322Z,11.96
2019-06-07T03:35:40.662Z,11.96
2019-06-07T03:36:40.082Z,11.90
2019-06-07T03:37:42.607Z,11.86
2019-06-07T03:38:39.957Z,11.86
2019-06-07T03:39:40.971Z,11.86
2019-06-07T03:40:39.987Z,11.90
2019-06-07T03:41:49.901Z,11.93
2019-06-07T03:42:40.169Z,11.94
2019-06-07T03:43:40.480Z,11.99
2019-06-07T03:44:40.637Z,12.05
2019-06-07T03:45:40.953Z,12.09
2019-06-07T03:46:41.170Z,12.12
2019-06-07T03:47:41.413Z,12.13
2019-06-07T03:48:41.101Z,12.16
2019-06-07T03:49:42.177Z,12.16
2019-06-07T03:50:41.444Z,12.16
2019-06-07T03:51:40.597Z,12.16
2019-06-07T03:52:40.967Z,12.19
2019-06-07T03:53:40.870Z,12.16
2019-06-07T03:54:39.771Z,12.19
2019-06-07T03:55:39.050Z,12.16
2019-06-07T03:56:40.665Z,12.16
2019-06-07T03:58:29.474Z,12.15
2019-06-07T03:58:49.060Z,12.16
2019-06-07T03:59:41.230Z,12.20
2019-06-07T04:00:42.758Z,12.19
2019-06-07T04:01:41.137Z,12.20
2019-06-07T04:02:41.399Z,12.24
2019-06-07T04:03:46.380Z,12.23
2019-06-07T04:04:39.920Z,12.23
2019-06-07T04:05:41.229Z,12.26
2019-06-07T04:06:41.928Z,12.27
2019-06-07T04:07:43.399Z,12.29
2019-06-07T04:08:41.935Z,12.29
2019-06-07T04:09:42.422Z,12.29
2019-06-07T04:10:55.727Z,12.30
2019-06-07T04:11:39.448Z,12.30
2019-06-07T04:12:41.210Z,12.31
2019-06-07T04:13:42.894Z,12.29
2019-06-07T04:14:42.561Z,12.24
2019-06-07T04:15:39.552Z,12.27
2019-06-07T04:16:43.587Z,12.29
2019-06-07T04:17:45.068Z,12.30
2019-06-07T04:18:40.874Z,12.33
2019-06-07T04:19:42.805Z,12.39
2019-06-07T04:20:41.234Z,12.39
2019-06-07T04:21:42.117Z,12.31
2019-06-07T04:22:40.472Z,12.29
2019-06-07T04:23:41.802Z,12.30
2019-06-07T04:24:41.504Z,12.38
2019-06-07T04:25:41.753Z,12.39
2019-06-07T04:26:43.192Z,12.42
2019-06-07T04:27:40.517Z,12.42
2019-06-07T04:30:04.859Z,12.42
2019-06-07T04:30:39.559Z,12.45
2019-06-07T04:31:41.955Z,12.46
2019-06-07T04:32:40.571Z,12.48
2019-06-07T04:33:42.843Z,12.51
2019-06-07T04:34:42.600Z,12.56
2019-06-07T04:35:40.009Z,12.56
2019-06-07T04:36:48.488Z,12.63
2019-06-07T04:37:41.154Z,12.64
2019-06-07T04:38:40.541Z,12.69
2019-06-07T04:39:44.311Z,12.74
2019-06-07T04:40:39.935Z,12.77
2019-06-07T04:41:39.094Z,12.70
2019-06-07T04:42:41.406Z,12.64
2019-06-07T04:43:40.964Z,12.60
2019-06-07T04:44:41.137Z,12.60
2019-06-07T04:45:45.760Z,12.57
2019-06-07T04:46:42.452Z,12.57
2019-06-07T04:47:38.890Z,12.60
2019-06-07T04:48:41.401Z,12.56
2019-06-07T04:49:43.844Z,12.59
2019-06-07T04:50:41.048Z,12.63
2019-06-07T04:51:41.072Z,12.67
2019-06-07T04:52:42.723Z,12.70
2019-06-07T04:53:42.677Z,12.75
2019-06-07T04:54:41.645Z,12.74
2019-06-07T04:55:41.618Z,12.78
2019-06-07T04:56:40.820Z,12.82
2019-06-07T04:57:43.242Z,12.85
2019-06-07T04:58:38.304Z,12.85
2019-06-07T05:01:01.399Z,12.85
2019-06-07T05:01:42.231Z,12.87
2019-06-07T05:02:40.894Z,12.92
2019-06-07T05:03:40.798Z,12.89
2019-06-07T05:04:39.826Z,12.89
2019-06-07T05:05:41.219Z,12.95
2019-06-07T05:06:39.737Z,13.02
2019-06-07T05:07:37.938Z,13.04
2019-06-07T05:08:38.799Z,13.04
2019-06-07T05:09:42.524Z,13.04
2019-06-07T05:10:40.541Z,13.04
2019-06-07T05:11:39.287Z,13.03
2019-06-07T05:12:41.543Z,13.02
2019-06-07T05:13:40.432Z,13.02
2019-06-07T05:14:39.880Z,13.04
2019-06-07T05:15:39.997Z,13.11
2019-06-07T05:16:40.693Z,13.11
2019-06-07T05:17:42.548Z,13.15
2019-06-07T05:18:40.187Z,13.25
2019-06-07T05:19:39.162Z,13.30
2019-06-07T05:20:40.082Z,13.36
2019-06-07T05:21:58.687Z,13.43
2019-06-07T05:22:40.764Z,13.49
2019-06-07T05:24:39.849Z,13.56
2019-06-07T05:25:39.280Z,13.56
2019-06-07T05:26:40.444Z,13.55
2019-06-07T05:27:39.309Z,13.56
2019-06-07T05:28:40.923Z,13.62
2019-06-07T05:29:40.626Z,13.63
2019-06-07T05:31:02.081Z,13.73
2019-06-07T05:31:41.719Z,13.77
2019-06-07T05:32:43.913Z,13.76
2019-06-07T05:33:38.914Z,13.77
2019-06-07T05:34:39.222Z,13.77
2019-06-07T05:35:40.971Z,13.83
2019-06-07T05:36:41.411Z,13.89
2019-06-07T05:37:38.230Z,13.99
2019-06-07T05:38:40.533Z,14.09
2019-06-07T05:39:42.005Z,14.07
2019-06-07T05:40:40.135Z,14.07
2019-06-07T05:41:41.201Z,14.12
2019-06-07T05:42:41.110Z,14.16
2019-06-07T05:43:40.900Z,14.17
2019-06-07T05:44:39.874Z,14.20
2019-06-07T05:45:39.286Z,14.27
2019-06-07T05:46:38.550Z,14.29
2019-06-07T05:47:40.888Z,14.29
2019-06-07T05:48:40.797Z,14.28
2019-06-07T05:49:39.539Z,14.32
2019-06-07T05:50:44.843Z,14.37
2019-06-07T05:51:41.512Z,14.44
2019-06-07T05:52:41.739Z,14.46
2019-06-07T05:53:39.976Z,14.47
2019-06-07T05:54:37.739Z,14.47
2019-06-07T05:55:37.823Z,14.44
2019-06-07T05:56:39.419Z,14.43
2019-06-07T05:57:40.519Z,14.46
2019-06-07T05:58:37.783Z,14.43
2019-06-07T05:59:39.710Z,14.52
2019-06-07T06:00:38.890Z,14.54
2019-06-07T06:01:46.053Z,14.62
2019-06-07T06:02:58.588Z,14.72
2019-06-07T06:03:37.988Z,14.72
2019-06-07T06:04:39.325Z,14.81
2019-06-07T06:05:42.053Z,14.87
2019-06-07T06:06:39.614Z,14.87
2019-06-07T06:07:41.219Z,14.95
2019-06-07T06:08:39.256Z,14.98
2019-06-07T06:09:38.109Z,14.98
2019-06-07T06:10:39.052Z,15.02
2019-06-07T06:11:52.142Z,15.05
2019-06-07T06:12:40.891Z,15.08
2019-06-07T06:13:54.323Z,15.19
2019-06-07T06:14:42.024Z,15.20
2019-06-07T06:15:45.386Z,15.24
2019-06-07T06:16:39.557Z,15.24
2019-06-07T06:17:40.552Z,15.27
2019-06-07T06:18:38.024Z,15.30
2019-06-07T06:19:37.471Z,15.36
2019-06-07T06:21:02.223Z,15.41
2019-06-07T06:21:38.526Z,15.36
2019-06-07T06:22:37.302Z,15.46
2019-06-07T06:23:39.546Z,15.54
2019-06-07T06:24:39.357Z,15.57
2019-06-07T06:25:38.630Z,15.63
2019-06-07T06:26:45.448Z,15.68
2019-06-07T06:28:38.301Z,15.68
2019-06-07T06:29:38.701Z,15.75
2019-06-07T06:30:36.190Z,15.79
2019-06-07T06:31:38.010Z,15.72
2019-06-07T06:32:46.461Z,15.68
2019-06-07T06:33:37.474Z,15.70
2019-06-07T06:34:40.021Z,15.76
2019-06-07T06:35:37.529Z,15.76
2019-06-07T06:36:37.363Z,15.79
2019-06-07T06:37:40.376Z,15.76
2019-06-07T06:38:38.595Z,15.68
2019-06-07T06:39:37.119Z,15.68
2019-06-07T06:40:38.339Z,15.76
2019-06-07T06:41:50.821Z,15.79
2019-06-07T06:42:37.255Z,15.81
2019-06-07T06:43:38.654Z,15.86
2019-06-07T06:44:36.019Z,15.92
2019-06-07T06:45:35.949Z,15.89
2019-06-07T06:46:40.926Z,15.74
2019-06-07T06:47:38.288Z,15.78
2019-06-07T06:48:36.224Z,15.88
2019-06-07T06:49:36.082Z,16.01
2019-06-07T06:50:36.139Z,16.12
2019-06-07T06:51:35.920Z,16.25
2019-06-07T06:52:35.902Z,16.27
2019-06-07T06:53:35.929Z,16.33
2019-06-07T06:54:43.016Z,16.34
2019-06-07T06:55:36.839Z,16.31
2019-06-07T06:56:35.857Z,16.35
2019-06-07T06:57:35.839Z,16.33
2019-06-07T06:59:21.707Z,16.27
2019-06-07T06:59:39.209Z,16.27
2019-06-07T07:00:46.189Z,16.33
2019-06-07T07:01:36.818Z,16.40
2019-06-07T07:03:27.135Z,16.44
2019-06-07T07:03:57.529Z,16.42
2019-06-07T07:04:36.783Z,16.52
2019-06-07T07:05:35.841Z,16.65
2019-06-07T07:06:35.777Z,16.71
2019-06-07T07:07:35.733Z,16.88
2019-06-07T07:08:35.748Z,16.86
2019-06-07T07:09:35.883Z,16.75
2019-06-07T07:10:36.084Z,16.81
2019-06-07T07:11:52.438Z,16.83
2019-06-07T07:12:36.729Z,16.85
2019-06-07T07:13:35.693Z,16.85
2019-06-07T07:14:35.657Z,16.88
2019-06-07T07:15:35.680Z,16.96
2019-06-07T07:16:35.723Z,17.06
2019-06-07T07:17:50.917Z,17.17
2019-06-07T07:18:36.633Z,17.32
2019-06-07T07:19:35.659Z,17.44
2019-06-07T07:20:35.617Z,17.38
2019-06-07T07:21:35.635Z,17.50
2019-06-07T07:22:35.578Z,17.57
2019-06-07T07:23:35.616Z,17.62
2019-06-07T07:24:35.938Z,17.67
2019-06-07T07:25:35.875Z,17.64
2019-06-07T07:26:35.975Z,17.54
2019-06-07T07:27:35.526Z,17.36
2019-06-07T07:28:35.501Z,17.30
2019-06-07T07:29:35.526Z,17.46
2019-06-07T07:30:37.306Z,17.76
2019-06-07T07:31:35.557Z,17.76
2019-06-07T07:32:35.573Z,17.73
2019-06-07T07:34:37.385Z,17.91
2019-06-07T07:35:35.439Z,17.81
2019-06-07T07:36:39.646Z,17.76
2019-06-07T07:37:35.839Z,17.85
2019-06-07T07:38:35.426Z,17.85
2019-06-07T07:39:35.439Z,17.79
2019-06-07T07:40:56.804Z,17.87
2019-06-07T07:41:36.380Z,17.91
2019-06-07T07:42:35.429Z,18.00
2019-06-07T07:43:36.995Z,18.02
2019-06-07T07:44:35.659Z,18.00
2019-06-07T07:45:35.567Z,18.07
2019-06-07T07:46:35.652Z,18.13
2019-06-07T07:47:35.309Z,18.46
2019-06-07T07:48:35.320Z,18.49
2019-06-07T07:49:35.284Z,18.47
2019-06-07T07:50:35.268Z,18.36
2019-06-07T07:51:35.681Z,18.37
2019-06-07T07:52:35.339Z,18.40
2019-06-07T07:53:48.656Z,18.43
2019-06-07T07:54:36.221Z,18.47
2019-06-07T07:55:35.248Z,18.59
2019-06-07T07:56:35.209Z,18.90
2019-06-07T07:57:36.198Z,19.36
2019-06-07T07:58:35.236Z,19.58
2019-06-07T07:59:43.936Z,19.60
2019-06-07T08:00:52.234Z,19.60
2019-06-07T08:01:36.148Z,19.54
2019-06-07T08:02:35.173Z,19.73
2019-06-07T08:03:35.581Z,19.94
2019-06-07T08:05:12.811Z,19.95
2019-06-07T08:05:43.057Z,20.05
2019-06-07T08:06:36.108Z,20.18
2019-06-07T08:07:35.088Z,20.25
2019-06-07T08:08:35.565Z,20.35
2019-06-07T08:09:35.068Z,20.64
2019-06-07T08:10:35.108Z,20.68
2019-06-07T08:11:35.840Z,20.83
2019-06-07T08:12:55.774Z,20.95
2019-06-07T08:13:37.403Z,21.01
2019-06-07T08:14:35.029Z,20.72
2019-06-07T08:15:35.862Z,20.16
2019-06-07T08:16:35.069Z,19.90
2019-06-07T08:17:34.995Z,19.70
2019-06-07T08:18:34.991Z,19.72
2019-06-07T08:19:36.806Z,19.60
2019-06-07T08:20:34.988Z,19.46
2019-06-07T08:21:35.579Z,19.38
2019-06-07T08:22:35.345Z,19.73
2019-06-07T08:23:34.960Z,20.10
2019-06-07T08:24:35.831Z,20.39
2019-06-07T08:25:36.011Z,20.54
2019-06-07T08:26:35.871Z,20.16
2019-06-07T08:27:36.428Z,19.50
2019-06-07T08:28:35.829Z,19.23
2019-06-07T08:29:44.893Z,19.18
2019-06-07T08:30:50.169Z,19.10
2019-06-07T08:31:35.860Z,19.05
2019-06-07T08:32:34.819Z,19.17
2019-06-07T08:33:36.310Z,19.28
2019-06-07T08:34:34.849Z,19.39
2019-06-07T08:36:41.941Z,19.70
2019-06-07T08:38:13.971Z,20.24
2019-06-07T08:38:47.667Z,20.76
2019-06-07T08:39:38.207Z,21.13
2019-06-07T08:40:35.129Z,21.53
2019-06-07T08:41:35.551Z,21.63
2019-06-07T08:42:38.371Z,21.63
2019-06-07T08:43:37.349Z,21.06
2019-06-07T08:44:35.318Z,21.01
2019-06-07T08:45:38.770Z,21.32
2019-06-07T08:46:35.476Z,21.38
2019-06-07T08:47:35.529Z,21.21
2019-06-07T08:48:36.169Z,20.68
2019-06-07T08:49:34.929Z,20.53
2019-06-07T08:50:35.120Z,20.71
2019-06-07T08:51:34.701Z,20.80
2019-06-07T08:52:34.738Z,21.09
2019-06-07T08:53:34.620Z,21.21
2019-06-07T08:54:34.723Z,21.71
2019-06-07T08:55:34.592Z,22.04
2019-06-07T08:56:35.203Z,22.16
2019-06-07T08:57:34.609Z,21.97
2019-06-07T08:58:34.584Z,21.88
2019-06-07T08:59:34.551Z,21.44
2019-06-07T09:00:49.807Z,21.38
2019-06-07T09:01:35.511Z,21.54
2019-06-07T09:02:34.500Z,21.94
2019-06-07T09:03:34.611Z,22.19
2019-06-07T09:04:35.382Z,22.31
2019-06-07T09:05:34.502Z,22.41
2019-06-07T09:07:02.386Z,22.60
2019-06-07T09:07:36.050Z,22.60
2019-06-07T09:08:35.480Z,22.92
2019-06-07T09:09:36.120Z,22.69
2019-06-07T09:10:40.560Z,22.69
2019-06-07T09:11:36.162Z,22.77
2019-06-07T09:12:35.637Z,22.84
2019-06-07T09:13:35.230Z,22.60
2019-06-07T09:14:34.731Z,22.74
2019-06-07T09:15:35.082Z,22.23
2019-06-07T09:16:35.098Z,22.56
2019-06-07T09:17:34.797Z,22.50
2019-06-07T09:18:42.703Z,22.19
2019-06-07T09:19:35.364Z,22.27
2019-06-07T09:20:36.999Z,22.78
2019-06-07T09:21:34.581Z,22.80
2019-06-07T09:22:34.383Z,23.26
2019-06-07T09:23:34.691Z,23.35
2019-06-07T09:24:34.539Z,23.79
2019-06-07T09:25:52.472Z,24.24
2019-06-07T09:26:35.281Z,23.90
2019-06-07T09:27:34.292Z,23.77
2019-06-07T09:28:34.556Z,23.43
2019-06-07T09:29:34.241Z,23.42
2019-06-07T09:30:34.262Z,23.72
2019-06-07T09:31:51.878Z,24.07
2019-06-07T09:32:36.438Z,24.49
2019-06-07T09:33:34.184Z,24.44
2019-06-07T09:34:34.183Z,24.19
2019-06-07T09:35:34.162Z,24.44
2019-06-07T09:36:34.551Z,24.83
2019-06-07T09:38:35.189Z,25.57
2019-06-07T09:39:34.161Z,26.21
2019-06-07T09:40:34.108Z,26.22
2019-06-07T09:41:47.755Z,25.56
2019-06-07T09:42:35.124Z,25.30
2019-06-07T09:44:36.422Z,25.12
2019-06-07T09:45:40.901Z,25.06
2019-06-07T09:46:34.097Z,25.22
2019-06-07T09:47:34.183Z,25.01
2019-06-07T09:49:10.044Z,24.76
2019-06-07T09:49:35.468Z,24.90
2019-06-07T09:50:35.209Z,25.07
2019-06-07T09:51:34.851Z,25.19
2019-06-07T09:52:56.915Z,25.27
2019-06-07T09:53:36.677Z,25.34
2019-06-07T09:55:35.561Z,25.32
2019-06-07T09:56:35.260Z,25.49
2019-06-07T09:57:33.943Z,25.86
2019-06-07T09:58:52.869Z,26.21
2019-06-07T09:59:35.094Z,26.52
2019-06-07T10:00:40.523Z,26.43
2019-06-07T10:01:35.534Z,26.68
2019-06-07T10:02:34.522Z,26.05
2019-06-07T10:03:34.193Z,25.52
2019-06-07T10:04:33.883Z,26.08
2019-06-07T10:05:34.241Z,26.35
2019-06-07T10:06:34.076Z,26.28
2019-06-07T10:07:35.483Z,26.22
2019-06-07T10:09:42.419Z,26.65
2019-06-07T10:11:33.857Z,25.68
2019-06-07T10:12:33.819Z,25.94
2019-06-07T10:13:33.926Z,26.64
2019-06-07T10:14:33.775Z,26.86
2019-06-07T10:15:33.754Z,27.36
2019-06-07T10:16:46.160Z,27.66
2019-06-07T10:17:34.777Z,27.79
2019-06-07T10:18:33.753Z,27.53
2019-06-07T10:19:34.055Z,27.71
2019-06-07T10:20:34.691Z,27.47
2019-06-07T10:21:33.707Z,27.50
2019-06-07T10:22:33.945Z,27.58
2019-06-07T10:23:34.533Z,27.74
2019-06-07T10:24:33.668Z,27.61
2019-06-07T10:25:37.179Z,27.04
2019-06-07T10:26:33.626Z,26.68
2019-06-07T10:27:33.705Z,26.69
2019-06-07T10:28:33.673Z,27.05
2019-06-07T10:29:33.621Z,27.39
2019-06-07T10:30:34.625Z,27.01
2019-06-07T10:31:35.509Z,26.77
2019-06-07T10:32:33.640Z,27.26
2019-06-07T10:33:34.955Z,27.66
2019-06-07T10:34:33.611Z,27.23
2019-06-07T10:35:34.916Z,26.62
2019-06-07T10:36:34.783Z,26.74
2019-06-07T10:37:33.668Z,26.92
2019-06-07T10:38:34.920Z,27.61
2019-06-07T10:39:47.612Z,27.62
2019-06-07T10:40:34.497Z,27.73
2019-06-07T10:41:33.502Z,27.47
2019-06-07T10:42:33.468Z,27.41
2019-06-07T10:43:33.907Z,27.43
2019-06-07T10:44:33.518Z,27.80
2019-06-07T10:45:33.448Z,27.98
2019-06-07T10:46:33.480Z,28.46
2019-06-07T10:47:33.488Z,28.73
2019-06-07T10:48:34.959Z,27.33
2019-06-07T10:49:35.502Z,26.94
2019-06-07T10:50:33.709Z,27.96
2019-06-07T10:51:33.445Z,28.10
2019-06-07T10:52:33.408Z,27.69
2019-06-07T10:53:33.382Z,27.16
2019-06-07T10:54:33.392Z,26.89
2019-06-07T10:55:34.190Z,26.74
2019-06-07T10:56:33.981Z,27.11
2019-06-07T10:57:34.970Z,27.46
2019-06-07T10:58:34.233Z,27.43
2019-06-07T10:59:33.348Z,27.42
2019-06-07T11:00:33.462Z,27.54
2019-06-07T11:01:33.501Z,27.17
2019-06-07T11:02:33.459Z,27.76
2019-06-07T11:03:35.896Z,28.36
2019-06-07T11:04:34.410Z,27.70
2019-06-07T11:05:33.242Z,26.96
2019-06-07T11:06:33.410Z,26.89
2019-06-07T11:07:34.593Z,26.98
2019-06-07T11:08:33.353Z,26.25
2019-06-07T11:09:33.237Z,25.86
2019-06-07T11:10:33.364Z,25.97
2019-06-07T11:11:33.262Z,26.22
2019-06-07T11:12:33.302Z,26.64
2019-06-07T11:13:33.699Z,26.91
2019-06-07T11:14:33.150Z,27.54
2019-06-07T11:15:33.883Z,28.40
2019-06-07T11:16:33.696Z,29.11
2019-06-07T11:17:41.405Z,28.96
2019-06-07T11:18:34.682Z,28.80
2019-06-07T11:19:33.779Z,28.51
2019-06-07T11:20:33.402Z,28.63
2019-06-07T11:21:33.201Z,28.41
2019-06-07T11:22:34.469Z,28.41
2019-06-07T11:23:33.463Z,28.58
2019-06-07T11:24:33.103Z,28.60
2019-06-07T11:25:33.594Z,29.33
2019-06-07T11:26:34.085Z,29.55
2019-06-07T11:27:33.040Z,29.45
2019-06-07T11:28:33.994Z,28.77
2019-06-07T11:29:34.396Z,29.00
2019-06-07T11:30:33.045Z,28.40
2019-06-07T11:31:34.045Z,28.65
2019-06-07T11:32:33.445Z,28.87
2019-06-07T11:33:33.652Z,28.96
2019-06-07T11:34:33.392Z,28.84
2019-06-07T11:35:32.987Z,28.90
2019-06-07T11:36:33.663Z,28.84
2019-06-07T11:37:33.556Z,28.44
2019-06-07T11:38:33.853Z,28.01
2019-06-07T11:39:34.274Z,28.28
2019-06-07T11:40:35.837Z,28.38
2019-06-07T11:41:34.436Z,28.78
2019-06-07T11:42:33.726Z,29.19
2019-06-07T11:43:32.868Z,29.70
2019-06-07T11:44:33.184Z,30.02
2019-06-07T11:45:33.778Z,30.08
2019-06-07T11:46:33.024Z,29.81
2019-06-07T11:47:32.863Z,30.21
2019-06-07T11:48:33.135Z,30.37
2019-06-07T11:49:32.783Z,29.92
2019-06-07T11:50:32.786Z,30.03
2019-06-07T11:51:32.803Z,30.46
2019-06-07T11:52:33.219Z,30.12
2019-06-07T11:53:32.763Z,30.21
2019-06-07T11:54:32.805Z,30.14
2019-06-07T11:55:32.780Z,30.62
2019-06-07T11:56:33.908Z,30.46
2019-06-07T11:57:33.367Z,30.71
2019-06-07T11:58:33.021Z,31.09
2019-06-07T11:59:33.739Z,30.49
2019-06-07T12:00:34.342Z,30.74
2019-06-07T12:01:32.699Z,31.46
2019-06-07T12:02:33.575Z,32.21
2019-06-07T12:03:32.670Z,31.26
2019-06-07T12:04:35.061Z,29.77
2019-06-07T12:05:33.147Z,29.94
2019-06-07T12:06:33.328Z,30.18
2019-06-07T12:07:33.459Z,30.03
2019-06-07T12:08:32.702Z,29.90
2019-06-07T12:09:32.648Z,30.15
2019-06-07T12:10:42.197Z,30.83
2019-06-07T12:11:34.850Z,31.33
2019-06-07T12:12:32.558Z,31.36
2019-06-07T12:13:32.990Z,31.54
2019-06-07T12:14:33.188Z,31.33
2019-06-07T12:15:34.128Z,30.80
2019-06-07T12:16:33.681Z,31.06
2019-06-07T12:17:32.778Z,30.50
2019-06-07T12:18:33.202Z,30.46
2019-06-07T12:19:32.494Z,30.27
2019-06-07T12:20:32.477Z,29.37
2019-06-07T12:21:32.478Z,29.38
2019-06-07T12:22:33.331Z,28.87
2019-06-07T12:23:32.504Z,28.84
2019-06-07T12:24:33.779Z,29.52
2019-06-07T12:25:33.179Z,29.86
2019-06-07T12:26:33.395Z,30.31
2019-06-07T12:27:32.399Z,30.87
2019-06-07T12:28:32.445Z,31.27
2019-06-07T12:29:34.058Z,30.65
2019-06-07T12:30:32.464Z,30.46
2019-06-07T12:31:32.382Z,30.81
2019-06-07T12:32:32.381Z,30.65
2019-06-07T12:33:32.350Z,30.38
2019-06-07T12:34:32.400Z,29.92
2019-06-07T12:35:32.449Z,30.16
2019-06-07T12:36:32.332Z,29.86
2019-06-07T12:37:43.114Z,29.31
2019-06-07T12:38:33.967Z,29.28
2019-06-07T12:39:32.291Z,29.16
2019-06-07T12:40:32.640Z,29.63
2019-06-07T12:41:34.953Z,29.82
2019-06-07T12:42:33.688Z,29.29
2019-06-07T12:43:34.684Z,28.87
2019-06-07T12:44:33.271Z,29.38
2019-06-07T12:45:44.548Z,29.50
2019-06-07T12:46:34.524Z,29.70
2019-06-07T12:47:32.250Z,30.08
2019-06-07T12:48:34.735Z,30.26
2019-06-07T12:49:32.522Z,30.26
2019-06-07T12:50:42.558Z,30.59
2019-06-07T12:51:33.392Z,30.64
2019-06-07T12:52:32.553Z,30.50
2019-06-07T12:53:32.183Z,30.52
2019-06-07T12:54:32.294Z,30.00
2019-06-07T12:55:32.135Z,30.09
2019-06-07T12:56:34.664Z,30.38
2019-06-07T12:57:32.513Z,30.98
2019-06-07T12:58:36.140Z,30.99
2019-06-07T12:59:33.129Z,31.12
2019-06-07T13:00:32.364Z,31.01
2019-06-07T13:01:32.552Z,30.98
2019-06-07T13:02:32.083Z,30.81
2019-06-07T13:03:32.426Z,30.54
2019-06-07T13:04:33.604Z,30.72
2019-06-07T13:05:32.915Z,30.80